createdAt,value
2018-06-03T00:00:51.442Z,3.08
2018-06-03T00:03:19.392Z,2.92
2018-06-03T00:05:47.342Z,3.28
2018-06-03T00:08:15.499Z,3.00
2018-06-03T00:10:44.421Z,3.00
2018-06-03T00:13:12.511Z,3.05
2018-06-03T00:15:40.623Z,3.15
2018-06-03T00:18:09.441Z,3.25
2018-06-03T00:20:37.293Z,3.17
2018-06-03T00:23:05.487Z,2.95
2018-06-03T00:25:33.415Z,3.40
2018-06-03T00:28:02.311Z,3.37
2018-06-03T00:30:31.071Z,3.12
2018-06-03T00:32:58.911Z,3.00
2018-06-03T00:35:27.188Z,3.03
2018-06-03T00:37:55.271Z,3.30
2018-06-03T00:40:23.264Z,3.50
2018-06-03T00:42:51.303Z,3.20
2018-06-03T00:45:19.551Z,3.30
2018-06-03T00:47:47.382Z,3.47
2018-06-03T00:50:16.322Z,3.15
2018-06-03T00:52:44.512Z,3.30
2018-06-03T00:55:12.845Z,3.00
2018-06-03T00:57:40.965Z,3.50
2018-06-03T01:00:09.120Z,3.08
2018-06-03T01:02:37.153Z,2.85
2018-06-03T01:05:05.411Z,2.95
2018-06-03T01:07:34.581Z,3.20
2018-06-03T01:10:03.051Z,3.03
2018-06-03T01:12:31.019Z,3.10
2018-06-03T01:14:59.053Z,3.35
2018-06-03T01:17:27.197Z,3.33
2018-06-03T01:19:55.193Z,2.90
2018-06-03T01:22:23.335Z,2.78
2018-06-03T01:24:52.059Z,3.10
2018-06-03T01:27:20.075Z,3.53
2018-06-03T01:29:48.929Z,3.20
2018-06-03T01:32:16.883Z,2.80
2018-06-03T01:34:44.813Z,3.15
2018-06-03T01:37:13.552Z,3.10
2018-06-03T01:39:41.625Z,2.85
2018-06-03T01:42:09.523Z,2.90
2018-06-03T01:44:37.564Z,2.90
2018-06-03T01:47:05.553Z,3.20
2018-06-03T01:49:34.235Z,2.90
2018-06-03T01:52:02.601Z,3.00
2018-06-03T01:54:30.678Z,3.05
2018-06-03T01:56:58.723Z,3.35
2018-06-03T01:59:26.763Z,3.00
2018-06-03T02:01:54.844Z,3.10
2018-06-03T02:04:22.722Z,3.08
2018-06-03T02:06:50.729Z,3.08
2018-06-03T02:09:20.472Z,2.87
2018-06-03T02:11:48.563Z,2.90
2018-06-03T02:14:16.623Z,2.85
2018-06-03T02:16:44.859Z,2.97
2018-06-03T02:19:13.519Z,2.90
2018-06-03T02:21:41.626Z,2.90
2018-06-03T02:24:09.574Z,3.08
2018-06-03T02:26:37.573Z,2.95
2018-06-03T02:29:05.763Z,2.83
2018-06-03T02:31:33.898Z,3.12
2018-06-03T02:34:02.627Z,2.83
2018-06-03T02:36:30.758Z,2.80
2018-06-03T02:38:58.889Z,2.90
2018-06-03T02:41:26.873Z,3.15
2018-06-03T02:43:54.988Z,2.75
2018-06-03T02:46:23.189Z,2.70
2018-06-03T02:48:51.284Z,3.20
2018-06-03T02:51:20.197Z,2.83
2018-06-03T02:53:48.141Z,2.65
2018-06-03T02:56:16.735Z,3.28
2018-06-03T02:58:44.847Z,2.80
2018-06-03T03:01:12.655Z,3.22
2018-06-03T03:03:40.652Z,2.87
2018-06-03T03:06:09.266Z,2.75
2018-06-03T03:08:37.081Z,3.05
2018-06-03T03:11:05.851Z,2.95
2018-06-03T03:13:33.635Z,2.97
2018-06-03T03:16:01.486Z,2.95
2018-06-03T03:18:29.284Z,3.20
2018-06-03T03:20:57.289Z,2.97
2018-06-03T03:23:25.358Z,2.70
2018-06-03T03:25:53.322Z,2.33
2018-06-03T03:28:21.281Z,2.90
2018-06-03T03:30:49.249Z,3.03
2018-06-03T03:33:17.216Z,2.70
2018-06-03T03:35:45.123Z,2.83
2018-06-03T03:38:13.093Z,2.97
2018-06-03T03:40:41.042Z,2.60
2018-06-03T03:43:08.928Z,2.87
2018-06-03T03:45:36.858Z,2.97
2018-06-03T03:48:04.824Z,2.90
2018-06-03T03:50:32.595Z,2.90
2018-06-03T03:53:01.445Z,2.70
2018-06-03T03:55:29.400Z,2.78
2018-06-03T03:57:58.035Z,2.80
2018-06-03T04:00:26.061Z,2.67
2018-06-03T04:02:54.003Z,3.05
2018-06-03T04:05:22.024Z,3.10
2018-06-03T04:07:49.821Z,2.65
2018-06-03T04:10:17.692Z,2.80
2018-06-03T04:12:45.693Z,2.60
2018-06-03T04:15:14.233Z,3.00
2018-06-03T04:17:41.998Z,2.95
2018-06-03T04:20:09.961Z,2.90
2018-06-03T04:22:37.937Z,2.97
2018-06-03T04:25:05.780Z,2.97
2018-06-03T04:27:33.604Z,3.00
2018-06-03T04:30:01.446Z,2.60
2018-06-03T04:32:30.052Z,2.78
2018-06-03T04:34:57.863Z,2.70
2018-06-03T04:37:25.763Z,2.62
2018-06-03T04:39:54.370Z,3.00
2018-06-03T04:42:22.201Z,2.80
2018-06-03T04:44:50.961Z,2.65
2018-06-03T04:47:18.765Z,3.00
2018-06-03T04:49:47.375Z,2.83
2018-06-03T04:52:15.200Z,2.42
2018-06-03T04:54:43.880Z,2.60
2018-06-03T04:57:11.830Z,2.83
2018-06-03T04:59:39.683Z,2.80
2018-06-03T05:02:07.489Z,2.70
2018-06-03T05:04:36.073Z,2.60
2018-06-03T05:07:03.950Z,2.87
2018-06-03T05:09:31.774Z,2.95
2018-06-03T05:11:59.641Z,2.80
2018-06-03T05:14:27.494Z,2.75
2018-06-03T05:16:55.364Z,2.80
2018-06-03T05:19:23.362Z,2.62
2018-06-03T05:21:51.900Z,2.47
2018-06-03T05:24:19.757Z,2.92
2018-06-03T05:26:47.579Z,2.47
2018-06-03T05:29:16.206Z,2.72
2018-06-03T05:31:44.220Z,2.50
2018-06-03T05:34:13.072Z,2.97
2018-06-03T05:36:40.963Z,2.60
2018-06-03T05:39:08.915Z,2.80
2018-06-03T05:41:36.797Z,2.60
2018-06-03T05:44:04.656Z,2.58
2018-06-03T05:46:32.575Z,3.00
2018-06-03T05:49:00.574Z,2.55
2018-06-03T05:51:28.476Z,2.80
2018-06-03T05:53:57.190Z,2.42
2018-06-03T05:56:25.155Z,2.55
2018-06-03T05:58:53.036Z,2.47
2018-06-03T06:01:20.935Z,2.25
2018-06-03T06:03:48.959Z,2.60
2018-06-03T06:06:16.841Z,2.70
2018-06-03T06:08:44.650Z,2.75
2018-06-03T06:11:13.394Z,2.62
2018-06-03T06:13:41.286Z,2.70
2018-06-03T06:16:09.233Z,2.45
2018-06-03T06:18:37.158Z,2.72
2018-06-03T06:21:05.124Z,2.65
2018-06-03T06:23:32.933Z,2.53
2018-06-03T06:26:00.773Z,2.83
2018-06-03T06:28:28.621Z,2.80
2018-06-03T06:30:56.477Z,2.55
2018-06-03T06:33:24.428Z,3.28
2018-06-03T06:35:53.128Z,2.95
2018-06-03T06:38:21.701Z,2.70
2018-06-03T06:40:50.448Z,2.45
2018-06-03T06:43:18.386Z,2.70
2018-06-03T06:46:18.894Z,2.75
2018-06-03T06:48:49.084Z,2.87
2018-06-03T06:51:19.109Z,2.77
2018-06-03T06:53:49.618Z,3.00
2018-06-03T06:56:19.666Z,2.77
2018-06-03T06:58:49.780Z,2.90
2018-06-03T07:01:20.818Z,2.50
2018-06-03T07:03:51.174Z,3.15
2018-06-03T07:06:21.580Z,3.08
2018-06-03T07:08:51.482Z,2.80
2018-06-03T07:11:21.541Z,2.98
2018-06-03T07:13:51.857Z,3.05
2018-06-03T07:16:22.460Z,2.70
2018-06-03T07:18:52.698Z,2.75
2018-06-03T07:21:22.913Z,2.75
2018-06-03T07:23:52.920Z,2.50
2018-06-03T07:26:23.510Z,2.50
2018-06-03T07:28:53.482Z,3.10
2018-06-03T07:31:24.747Z,2.98
2018-06-03T07:33:55.332Z,2.70
2018-06-03T07:36:25.079Z,2.40
2018-06-03T07:38:54.747Z,2.30
2018-06-03T07:41:24.959Z,3.10
2018-06-03T07:43:54.462Z,2.55
2018-06-03T07:46:24.801Z,2.58
2018-06-03T07:48:55.203Z,2.80
2018-06-03T07:51:25.145Z,2.85
2018-06-03T07:53:55.017Z,2.80
2018-06-03T07:56:25.166Z,2.80
2018-06-03T07:58:55.544Z,2.37
2018-06-03T08:01:25.568Z,3.05
2018-06-03T08:03:55.779Z,2.47
2018-06-03T08:06:26.039Z,3.27
2018-06-03T08:08:56.025Z,2.80
2018-06-03T08:11:25.758Z,2.58
2018-06-03T08:13:56.185Z,2.50
2018-06-03T08:16:26.230Z,2.65
2018-06-03T08:18:56.515Z,2.65
2018-06-03T08:21:26.662Z,2.55
2018-06-03T08:23:56.750Z,2.90
2018-06-03T08:26:27.366Z,2.72
2018-06-03T08:28:57.969Z,3.05
2018-06-03T08:31:28.183Z,3.17
2018-06-03T08:33:58.199Z,2.52
2018-06-03T08:36:29.287Z,2.50
2018-06-03T08:38:59.234Z,2.83
2018-06-03T08:41:29.192Z,2.60
2018-06-03T08:43:59.512Z,2.77
2018-06-03T08:46:29.367Z,3.10
2018-06-03T08:48:59.678Z,2.50
2018-06-03T08:51:29.274Z,2.70
2018-06-03T08:53:59.534Z,2.83
2018-06-03T08:56:29.891Z,2.60
2018-06-03T08:59:00.302Z,2.60
2018-06-03T09:01:30.379Z,2.90
2018-06-03T09:04:01.235Z,2.50
2018-06-03T09:06:31.255Z,2.50
2018-06-03T09:09:01.317Z,2.60
2018-06-03T09:11:31.284Z,2.62
2018-06-03T09:14:01.443Z,2.40
2018-06-03T09:16:31.621Z,2.40
2018-06-03T09:19:02.004Z,2.40
2018-06-03T09:21:32.013Z,2.40
2018-06-03T09:24:02.390Z,2.30
2018-06-03T09:26:32.650Z,2.72
2018-06-03T09:29:03.424Z,2.50
2018-06-03T09:31:33.612Z,2.50
2018-06-03T09:34:03.704Z,2.47
2018-06-03T09:36:33.566Z,2.40
2018-06-03T09:39:06.055Z,2.12
2018-06-03T09:41:36.790Z,2.58
2018-06-03T09:44:06.591Z,2.20
2018-06-03T09:46:36.021Z,2.80
2018-06-03T09:49:05.791Z,2.20
2018-06-03T09:51:36.387Z,2.35
2018-06-03T09:54:06.352Z,2.40
2018-06-03T09:56:36.440Z,2.45
2018-06-03T09:59:06.296Z,2.40
2018-06-03T10:01:36.080Z,2.40
2018-06-03T10:04:06.147Z,2.37
2018-06-03T10:06:36.121Z,2.30
2018-06-03T10:09:07.994Z,2.30
2018-06-03T10:11:38.349Z,2.47
2018-06-03T10:14:08.734Z,2.20
2018-06-03T10:16:38.699Z,2.45
2018-06-03T10:19:08.970Z,2.40
2018-06-03T10:21:39.309Z,2.30
2018-06-03T10:24:09.436Z,2.70
2018-06-03T10:26:39.439Z,2.40
2018-06-03T10:29:09.278Z,2.17
2018-06-03T10:31:39.200Z,2.60
2018-06-03T10:34:09.008Z,2.45
2018-06-03T10:36:39.326Z,2.20
2018-06-03T10:39:09.365Z,2.52
2018-06-03T10:41:39.216Z,2.55
2018-06-03T10:44:09.345Z,2.50
2018-06-03T10:46:39.455Z,2.50
2018-06-03T10:49:09.373Z,2.45
2018-06-03T10:51:39.448Z,2.33
2018-06-03T10:54:09.836Z,2.47
2018-06-03T10:56:40.431Z,2.55
2018-06-03T10:59:10.687Z,2.60
2018-06-03T11:01:40.936Z,2.45
2018-06-03T11:04:11.213Z,2.67
2018-06-03T11:06:41.183Z,2.50
2018-06-03T11:09:11.360Z,2.45
2018-06-03T11:11:40.967Z,2.33
2018-06-03T11:14:11.484Z,2.20
2018-06-03T11:16:42.276Z,2.52
2018-06-03T11:19:12.695Z,2.20
2018-06-03T11:21:42.470Z,2.60
2018-06-03T11:24:13.483Z,2.50
2018-06-03T11:26:44.264Z,2.55
2018-06-03T11:29:14.523Z,2.30
2018-06-03T11:31:44.388Z,2.58
2018-06-03T11:34:14.963Z,2.60
2018-06-03T11:36:44.900Z,2.80
2018-06-03T11:39:14.832Z,2.60
2018-06-03T11:41:45.130Z,2.40
2018-06-03T11:44:15.518Z,2.50
2018-06-03T11:46:45.558Z,2.52
2018-06-03T11:49:15.650Z,2.42
2018-06-03T11:51:45.763Z,2.20
2018-06-03T11:54:16.151Z,2.50
2018-06-03T11:56:54.363Z,2.30
2018-06-03T11:59:33.200Z,2.20
2018-06-03T12:02:03.374Z,2.17
2018-06-03T12:04:33.860Z,2.60
2018-06-03T12:07:04.855Z,2.37
2018-06-03T12:09:34.944Z,2.40
2018-06-03T12:12:05.143Z,2.58
2018-06-03T12:14:34.864Z,2.30
2018-06-03T12:17:04.897Z,2.50
2018-06-03T12:19:35.097Z,2.47
2018-06-03T12:22:05.442Z,2.40
2018-06-03T12:24:35.581Z,2.27
2018-06-03T12:27:06.040Z,2.50
2018-06-03T12:29:35.519Z,2.40
2018-06-03T12:32:05.545Z,2.47
2018-06-03T12:34:35.366Z,2.30
2018-06-03T12:37:05.423Z,2.55
2018-06-03T12:39:35.796Z,2.52
2018-06-03T12:42:05.969Z,2.30
2018-06-03T12:44:36.106Z,2.62
2018-06-03T12:47:05.947Z,2.22
2018-06-03T12:49:36.176Z,2.22
2018-06-03T12:52:06.358Z,2.15
2018-06-03T12:54:36.561Z,2.35
2018-06-03T12:57:06.590Z,2.40
2018-06-03T12:59:36.865Z,2.40
2018-06-03T13:02:06.388Z,2.47
2018-06-03T13:04:37.282Z,2.12
2018-06-03T13:07:07.287Z,2.30
2018-06-03T13:09:37.660Z,2.30
2018-06-03T13:12:08.345Z,2.27
2018-06-03T13:14:38.324Z,2.62
2018-06-03T13:17:08.679Z,2.42
2018-06-03T13:19:38.684Z,2.20
2018-06-03T13:22:09.452Z,2.30
2018-06-03T13:24:40.101Z,2.62
2018-06-03T13:27:10.273Z,2.30
2018-06-03T13:29:40.388Z,2.20
2018-06-03T13:32:10.566Z,2.37
2018-06-03T13:34:40.724Z,2.62
2018-06-03T13:37:10.799Z,2.40
2018-06-03T13:39:40.682Z,2.33
2018-06-03T13:42:10.613Z,3.02
2018-06-03T13:44:41.106Z,2.50
2018-06-03T13:47:11.169Z,2.22
2018-06-03T13:49:41.680Z,2.33
2018-06-03T13:52:11.557Z,2.33
2018-06-03T13:54:41.988Z,2.20
2018-06-03T13:57:12.428Z,2.20
2018-06-03T13:59:42.518Z,2.42
2018-06-03T14:02:12.422Z,2.30
2018-06-03T14:04:42.597Z,2.40
2018-06-03T14:07:12.787Z,2.22
2018-06-03T14:09:42.896Z,2.35
2018-06-03T14:12:13.483Z,2.50
2018-06-03T14:14:44.714Z,2.58
2018-06-03T14:17:14.496Z,2.35
2018-06-03T14:19:44.368Z,2.42
2018-06-03T14:22:14.430Z,2.12
2018-06-03T14:24:44.401Z,2.40
2018-06-03T14:27:14.738Z,2.30
2018-06-03T14:29:45.085Z,2.50
2018-06-03T14:32:15.368Z,2.25
2018-06-03T14:34:46.420Z,2.40
2018-06-03T14:37:16.613Z,2.50
2018-06-03T14:39:47.183Z,2.67
2018-06-03T14:42:17.417Z,2.33
2018-06-03T14:44:47.816Z,2.22
2018-06-03T14:47:18.125Z,2.35
2018-06-03T14:49:49.276Z,2.92
2018-06-03T14:52:19.594Z,2.25
2018-06-03T14:54:50.055Z,2.40
2018-06-03T14:57:20.407Z,2.33
2018-06-03T14:59:50.685Z,2.30
2018-06-03T15:02:20.866Z,2.33
2018-06-03T15:04:51.102Z,2.60
2018-06-03T15:07:21.841Z,2.20
2018-06-03T15:09:52.061Z,2.42
2018-06-03T15:12:22.538Z,2.40
2018-06-03T15:14:52.898Z,2.60
2018-06-03T15:17:23.265Z,2.40
2018-06-03T15:19:54.202Z,2.30
2018-06-03T15:22:24.588Z,2.55
2018-06-03T15:24:54.758Z,2.22
2018-06-03T15:27:24.734Z,2.37
2018-06-03T15:29:55.851Z,2.30
2018-06-03T15:32:26.086Z,2.25
2018-06-03T15:34:55.943Z,1.95
2018-06-03T15:37:26.509Z,2.27
2018-06-03T15:39:57.374Z,2.37
2018-06-03T15:42:28.055Z,2.20
2018-06-03T15:44:58.452Z,2.17
2018-06-03T15:47:28.412Z,2.30
2018-06-03T15:49:58.361Z,1.90
2018-06-03T15:52:28.364Z,2.40
2018-06-03T15:54:58.330Z,2.50
2018-06-03T15:57:28.067Z,2.08
2018-06-03T15:59:58.271Z,2.50
2018-06-03T16:02:28.348Z,2.72
2018-06-03T16:04:58.440Z,2.50
2018-06-03T16:07:29.022Z,2.37
2018-06-03T16:09:58.936Z,2.12
2018-06-03T16:12:28.916Z,2.10
2018-06-03T16:14:58.787Z,2.50
2018-06-03T16:17:28.934Z,2.40
2018-06-03T16:19:59.890Z,2.45
2018-06-03T16:22:30.299Z,2.37
2018-06-03T16:25:00.680Z,2.17
2018-06-03T16:27:31.631Z,2.10
2018-06-03T16:30:02.443Z,2.33
2018-06-03T16:32:32.827Z,2.12
2018-06-03T16:35:02.983Z,2.20
2018-06-03T16:37:33.526Z,1.80
2018-06-03T16:40:03.789Z,2.55
2018-06-03T16:42:34.100Z,2.33
2018-06-03T16:45:04.329Z,2.30
2018-06-03T16:47:34.800Z,2.60
2018-06-03T16:50:04.965Z,1.95
2018-06-03T16:52:35.048Z,1.95
2018-06-03T16:55:06.069Z,2.60
2018-06-03T16:57:36.497Z,2.65
2018-06-03T17:00:07.851Z,2.20
2018-06-03T17:02:38.449Z,1.90
2018-06-03T17:05:09.333Z,2.20
2018-06-03T17:07:39.891Z,2.27
2018-06-03T17:10:10.483Z,2.27
2018-06-03T17:12:40.609Z,2.00
2018-06-03T17:15:10.534Z,2.62
2018-06-03T17:17:40.417Z,2.27
2018-06-03T17:20:11.014Z,2.37
2018-06-03T17:22:41.574Z,2.05
2018-06-03T17:25:12.127Z,2.05
2018-06-03T17:27:41.928Z,2.17
2018-06-03T17:30:12.179Z,2.55
2018-06-03T17:32:42.361Z,1.80
2018-06-03T17:35:13.226Z,1.95
2018-06-03T17:37:43.203Z,2.25
2018-06-03T17:40:13.406Z,2.30
2018-06-03T17:42:43.673Z,1.70
2018-06-03T17:45:13.766Z,2.40
2018-06-03T17:47:44.411Z,2.33
2018-06-03T17:50:14.846Z,2.12
2018-06-03T17:52:45.243Z,2.15
2018-06-03T17:55:15.556Z,2.02
2018-06-03T17:57:46.054Z,2.20
2018-06-03T18:00:16.136Z,2.17
2018-06-03T18:02:46.846Z,2.10
2018-06-03T18:05:17.382Z,2.25
2018-06-03T18:07:48.386Z,2.22
2018-06-03T18:10:18.748Z,2.30
2018-06-03T18:12:48.936Z,1.82
2018-06-03T18:15:18.588Z,2.25
2018-06-03T18:17:48.888Z,2.08
2018-06-03T18:20:19.234Z,2.20
2018-06-03T18:22:49.995Z,2.27
2018-06-03T18:25:20.421Z,2.02
2018-06-03T18:27:50.450Z,2.12
2018-06-03T18:30:20.288Z,2.20
2018-06-03T18:32:50.956Z,2.40
2018-06-03T18:35:21.137Z,2.45
2018-06-03T18:37:51.193Z,1.87
2018-06-03T18:40:21.245Z,1.90
2018-06-03T18:42:51.440Z,2.15
2018-06-03T18:45:21.650Z,1.92
2018-06-03T18:47:52.081Z,1.98
2018-06-03T18:50:21.917Z,2.15
2018-06-03T18:52:51.800Z,2.30
2018-06-03T18:55:21.648Z,2.20
2018-06-03T18:57:52.006Z,2.30
2018-06-03T19:00:21.902Z,2.20
2018-06-03T19:02:52.160Z,2.22
2018-06-03T19:05:22.714Z,1.98
2018-06-03T19:07:52.467Z,1.92
2018-06-03T19:10:22.853Z,1.82
2018-06-03T19:12:52.849Z,2.00
2018-06-03T19:15:22.849Z,2.05
2018-06-03T19:17:52.833Z,2.12
2018-06-03T19:20:24.162Z,2.00
2018-06-03T19:22:54.567Z,2.10
2018-06-03T19:25:24.642Z,2.17
2018-06-03T19:27:54.825Z,2.12
2018-06-03T19:30:24.430Z,2.33
2018-06-03T19:32:54.572Z,1.92
2018-06-03T19:35:24.593Z,2.20
2018-06-03T19:37:54.929Z,2.00
2018-06-03T19:40:24.792Z,2.00
2018-06-03T19:42:55.183Z,2.10
2018-06-03T19:45:25.141Z,2.20
2018-06-03T19:47:55.056Z,1.90
2018-06-03T19:50:25.314Z,2.00
2018-06-03T19:52:55.704Z,2.20
2018-06-03T19:55:26.142Z,1.82
2018-06-03T19:57:56.488Z,1.80
2018-06-03T20:00:27.027Z,1.80
2018-06-03T20:02:57.532Z,2.20
2018-06-03T20:05:27.833Z,2.10
2018-06-03T20:07:57.810Z,2.10
2018-06-03T20:10:27.886Z,1.80
2018-06-03T20:12:58.554Z,1.80
2018-06-03T20:15:28.713Z,1.80
2018-06-03T20:17:58.757Z,2.02
2018-06-03T20:20:28.549Z,1.80
2018-06-03T20:22:59.615Z,1.87
2018-06-03T20:25:30.395Z,1.80
2018-06-03T20:28:00.434Z,2.05
2018-06-03T20:30:30.539Z,1.95
2018-06-03T20:33:00.405Z,1.92
2018-06-03T20:35:30.369Z,2.00
2018-06-03T20:38:00.224Z,1.92
2018-06-03T20:40:30.394Z,2.12
2018-06-03T20:43:00.642Z,2.25
2018-06-03T20:45:30.498Z,2.02
2018-06-03T20:48:01.314Z,2.15
2018-06-03T20:50:31.476Z,1.90
2018-06-03T20:53:01.081Z,1.92
2018-06-03T20:55:30.741Z,1.77
2018-06-03T20:58:00.698Z,2.00
2018-06-03T21:00:30.839Z,2.08
2018-06-03T21:03:01.005Z,2.20
2018-06-03T21:05:31.281Z,1.80
2018-06-03T21:08:01.746Z,1.92
2018-06-03T21:10:31.766Z,1.80
2018-06-03T21:13:02.036Z,1.95
2018-06-03T21:15:32.086Z,1.87
2018-06-03T21:18:01.764Z,2.30
2018-06-03T21:20:31.986Z,1.67
2018-06-03T21:23:02.243Z,1.82
2018-06-03T21:25:32.457Z,1.70
2018-06-03T21:28:02.266Z,2.17
2018-06-03T21:30:32.424Z,2.20
2018-06-03T21:33:02.204Z,2.10
2018-06-03T21:35:32.371Z,2.22
2018-06-03T21:38:02.633Z,1.80
2018-06-03T21:40:32.618Z,1.90
2018-06-03T21:43:02.903Z,1.75
2018-06-03T21:45:33.924Z,2.10
2018-06-03T21:48:03.809Z,1.92
2018-06-03T21:50:34.325Z,1.90
2018-06-03T21:53:04.924Z,1.72
2018-06-03T21:55:34.564Z,1.90
2018-06-03T21:58:04.627Z,1.82
2018-06-03T22:00:35.099Z,1.87
2018-06-03T22:03:05.435Z,1.98
2018-06-03T22:05:35.212Z,1.82
2018-06-03T22:08:05.505Z,2.10
2018-06-03T22:10:35.508Z,2.20
2018-06-03T22:13:05.267Z,1.72
2018-06-03T22:15:35.518Z,2.08
2018-06-03T22:18:05.584Z,1.75
2018-06-03T22:20:35.679Z,1.70
2018-06-03T22:23:05.723Z,1.85
2018-06-03T22:25:35.363Z,2.02
2018-06-03T22:28:05.283Z,2.00
2018-06-03T22:30:35.613Z,2.10
2018-06-03T22:33:05.691Z,1.92
2018-06-03T22:35:35.855Z,1.82
2018-06-03T22:38:05.833Z,1.98
2018-06-03T22:40:35.887Z,2.08
2018-06-03T22:43:05.759Z,2.10
2018-06-03T22:45:37.553Z,1.70
2018-06-03T22:48:07.915Z,1.90
2018-06-03T22:50:37.746Z,1.72
2018-06-03T22:53:08.091Z,1.87
2018-06-03T22:55:38.759Z,1.77
2018-06-03T22:58:08.894Z,1.70
2018-06-03T23:00:39.207Z,1.85
2018-06-03T23:03:13.513Z,2.08
2018-06-03T23:05:43.702Z,1.80
2018-06-03T23:08:13.854Z,1.90
2018-06-03T23:10:44.290Z,1.77
2018-06-03T23:13:13.993Z,2.20
2018-06-03T23:15:44.159Z,2.12
2018-06-03T23:18:14.100Z,1.95
2018-06-03T23:20:44.598Z,2.00
2018-06-03T23:23:15.129Z,1.82
2018-06-03T23:25:44.839Z,1.90
2018-06-03T23:28:14.710Z,2.30
2018-06-03T23:30:45.151Z,2.12
2018-06-03T23:33:14.731Z,1.80
2018-06-03T23:35:44.874Z,1.90
2018-06-03T23:38:15.342Z,1.75
2018-06-03T23:40:45.919Z,2.12
2018-06-03T23:43:16.273Z,1.82
2018-06-03T23:45:46.401Z,2.15
2018-06-03T23:48:16.794Z,2.00
2018-06-03T23:50:46.955Z,1.80
2018-06-03T23:53:17.030Z,1.98
2018-06-03T23:55:47.263Z,1.77
2018-06-03T23:58:17.679Z,1.55
